Time;durP1;ratioP1;P1;durP2;ratioP2;P2;SDS_P1;SDS_P2;PMS_P1;PMS_P2;Temp;Humidity;BMP_temperature;BMP_pressure;BME280_temperature;BME280_humidity;BME280_pressure;Samples;Min_cycle;Max_cycle;Signal;HPM_P1;HPM_P2
2023/10/08 00:01:16;;;;;;;20.10;6.28;;;18.50;99.90;;;;;;5123816;27;20502;-85
2023/10/08 00:03:48;;;;;;;19.75;5.68;;;18.50;99.90;;;;;;5122037;27;20045;-85
2023/10/08 00:06:19;;;;;;;22.90;7.10;;;18.40;99.90;;;;;;5120188;27;20055;-86
2023/10/08 00:08:45;;;;;;;21.80;6.45;;;18.40;99.90;;;;;;5119302;27;20051;-84
2023/10/08 00:11:11;;;;;;;25.65;6.50;;;18.50;99.90;;;;;;5118951;27;20092;-82
2023/10/08 00:13:40;;;;;;;29.75;8.05;;;18.50;99.90;;;;;;5120537;27;20023;-85
2023/10/08 00:16:16;;;;;;;21.20;6.30;;;18.40;99.90;;;;;;5123924;27;20023;-82
2023/10/08 00:18:48;;;;;;;32.47;7.13;;;18.50;99.90;;;;;;5127976;27;20027;-84
2023/10/08 00:21:27;;;;;;;25.55;6.43;;;18.50;99.90;;;;;;5118815;27;20023;-83
2023/10/08 00:23:59;;;;;;;39.00;7.32;;;18.50;99.90;;;;;;5117754;27;20087;-83
2023/10/08 00:26:29;;;;;;;23.67;6.13;;;18.40;99.90;;;;;;5116798;27;20019;-83
2023/10/08 00:28:56;;;;;;;17.27;5.55;;;18.50;99.90;;;;;;5124510;27;20024;-84
2023/10/08 00:31:30;;;;;;;21.05;6.13;;;18.40;99.90;;;;;;5123480;27;20376;-90
2023/10/08 00:33:57;;;;;;;28.23;5.97;;;18.40;99.90;;;;;;5120819;27;20059;-85
2023/10/08 00:36:23;;;;;;;31.13;6.30;;;18.40;99.90;;;;;;5112517;27;20034;-84
2023/10/08 00:38:58;;;;;;;21.40;5.22;;;18.30;99.90;;;;;;5119623;27;20123;-82
2023/10/08 00:41:27;;;;;;;9.27;3.47;;;18.30;99.90;;;;;;5124960;27;20480;-83
2023/10/08 00:43:56;;;;;;;2.17;1.60;;;18.00;99.90;;;;;;5124571;27;20023;-89
2023/10/08 00:49:35;;;;;;;1.52;0.85;;;17.00;99.90;;;;;;5105189;27;20050;-88
2023/10/08 00:55:08;;;;;;;1.55;0.50;;;16.00;99.90;;;;;;5121470;27;20068;-84
2023/10/08 00:57:42;;;;;;;1.48;0.30;;;15.70;99.90;;;;;;5119097;27;20031;-85
2023/10/08 01:00:16;;;;;;;0.20;0.10;;;15.40;99.90;;;;;;5121691;27;20035;-88
2023/10/08 01:02:59;;;;;;;0.20;0.20;;;15.30;99.90;;;;;;5119032;27;20176;-88
2023/10/08 01:05:37;;;;;;;2.08;0.32;;;15.10;99.90;;;;;;5114800;27;20031;-86
2023/10/08 01:08:06;;;;;;;0.75;0.50;;;15.00;99.90;;;;;;5115061;27;20034;-86
2023/10/08 01:10:32;;;;;;;0.20;0.20;;;15.00;99.90;;;;;;5120460;27;20111;-88
2023/10/08 01:15:30;;;;;;;0.28;0.20;;;14.80;99.90;;;;;;5118670;27;20038;-86
2023/10/08 01:18:00;;;;;;;0.32;0.28;;;14.70;99.90;;;;;;5118291;27;20023;-85
2023/10/08 01:20:33;;;;;;;0.20;0.20;;;14.50;99.90;;;;;;5110575;27;20122;-85
2023/10/08 01:23:04;;;;;;;0.32;0.17;;;14.50;99.90;;;;;;5122598;27;20033;-86
2023/10/08 01:25:30;;;;;;;0.10;0.10;;;14.40;99.90;;;;;;5117215;27;20030;-85
2023/10/08 01:28:08;;;;;;;0.10;0.10;;;14.30;99.90;;;;;;5122940;27;20048;-87
2023/10/08 01:30:36;;;;;;;0.15;0.15;;;14.20;99.90;;;;;;5114958;27;20117;-86
2023/10/08 01:33:02;;;;;;;0.13;0.13;;;14.10;99.90;;;;;;5116649;27;20035;-87
2023/10/08 01:35:31;;;;;;;0.20;0.20;;;14.10;99.90;;;;;;5117980;27;20495;-87
2023/10/08 01:37:59;;;;;;;0.20;0.20;;;14.00;99.90;;;;;;5119784;27;20029;-85
2023/10/08 01:40:26;;;;;;;0.20;0.20;;;13.90;99.90;;;;;;5123956;27;20084;-88
2023/10/08 01:42:52;;;;;;;0.40;0.10;;;13.80;99.90;;;;;;5122967;27;20023;-87
2023/10/08 01:45:20;;;;;;;0.10;0.10;;;13.80;99.90;;;;;;5139366;27;20091;-86
2023/10/08 01:47:51;;;;;;;1.25;0.32;;;13.80;99.90;;;;;;5123271;27;20031;-86
2023/10/08 01:50:24;;;;;;;0.10;0.10;;;13.80;99.90;;;;;;5123612;27;20371;-86
2023/10/08 01:52:51;;;;;;;0.10;0.10;;;13.80;99.90;;;;;;5116970;27;20061;-88
2023/10/08 01:55:18;;;;;;;0.20;0.20;;;13.90;99.90;;;;;;5121719;27;20041;-87
2023/10/08 01:57:46;;;;;;;0.10;0.10;;;13.90;99.90;;;;;;5122048;27;20091;-87
2023/10/08 02:00:22;;;;;;;0.20;0.20;;;13.80;99.90;;;;;;5120000;27;20023;-87
2023/10/08 02:02:53;;;;;;;0.20;0.20;;;13.80;99.90;;;;;;5122868;27;20053;-87
2023/10/08 02:05:20;;;;;;;0.10;0.10;;;13.80;99.90;;;;;;5119289;27;20034;-87
2023/10/08 02:07:46;;;;;;;1.10;0.30;;;13.70;99.90;;;;;;5125025;27;20398;-85
2023/10/08 02:10:14;;;;;;;0.10;0.10;;;13.70;99.90;;;;;;5121821;27;20130;-85
2023/10/08 02:12:40;;;;;;;2.33;0.47;;;13.70;99.90;;;;;;5121234;27;20114;-85
2023/10/08 02:15:07;;;;;;;0.20;0.20;;;13.70;99.90;;;;;;5121860;27;20056;-87
2023/10/08 02:17:34;;;;;;;0.70;0.25;;;13.70;99.90;;;;;;5122561;27;20019;-88
2023/10/08 02:20:00;;;;;;;0.20;0.20;;;13.60;99.90;;;;;;5133955;27;20479;-85
2023/10/08 02:22:26;;;;;;;0.55;0.20;;;13.60;99.90;;;;;;5118790;27;20031;-87
2023/10/08 02:24:53;;;;;;;0.75;0.20;;;13.60;99.90;;;;;;5120953;27;20495;-86
2023/10/08 02:27:18;;;;;;;0.20;0.20;;;13.60;99.90;;;;;;5117029;27;20019;-87
2023/10/08 02:29:44;;;;;;;0.30;0.30;;;13.60;99.90;;;;;;5122392;27;20126;-90
2023/10/08 02:32:10;;;;;;;0.20;0.20;;;13.50;99.90;;;;;;5120809;27;20027;-89
2023/10/08 02:34:36;;;;;;;0.22;0.22;;;13.50;99.90;;;;;;5118467;27;20501;-88
2023/10/08 02:37:03;;;;;;;0.20;0.20;;;13.50;99.90;;;;;;5118062;27;20527;-88
2023/10/08 02:39:32;;;;;;;0.20;0.20;;;13.50;99.90;;;;;;5122938;27;20023;-90
2023/10/08 02:41:59;;;;;;;0.30;0.30;;;13.50;99.90;;;;;;5124247;27;20042;-85
2023/10/08 02:44:25;;;;;;;1.17;0.30;;;13.40;99.90;;;;;;5118145;27;20444;-91
2023/10/08 02:46:51;;;;;;;0.20;0.20;;;13.30;99.90;;;;;;5119426;27;20031;-89
2023/10/08 02:49:24;;;;;;;0.20;0.20;;;13.20;99.90;;;;;;5120571;27;20114;-89
2023/10/08 02:51:54;;;;;;;0.32;0.30;;;13.20;99.90;;;;;;5117824;27;20054;-90
2023/10/08 02:54:23;;;;;;;0.30;0.30;;;13.10;99.90;;;;;;5120855;27;20030;-94
2023/10/08 02:56:51;;;;;;;0.55;0.40;;;13.00;99.90;;;;;;5115705;27;20023;-92
2023/10/08 02:59:18;;;;;;;1.75;0.30;;;12.90;99.90;;;;;;5122721;27;20034;-92
2023/10/08 03:01:43;;;;;;;0.40;0.40;;;12.90;99.90;;;;;;5118884;27;20061;-93
2023/10/08 03:04:18;;;;;;;0.32;0.28;;;12.90;99.90;;;;;;5120163;27;20482;-89
2023/10/08 03:06:54;;;;;;;0.82;0.30;;;12.90;99.90;;;;;;5116442;27;20396;-91
2023/10/08 03:09:31;;;;;;;0.40;0.40;;;12.90;99.90;;;;;;5116911;27;20121;-88
2023/10/08 03:11:58;;;;;;;0.75;0.45;;;12.90;99.90;;;;;;5114440;27;20050;-87
2023/10/08 03:14:27;;;;;;;1.67;0.80;;;12.80;99.90;;;;;;5122332;27;20019;-88
2023/10/08 03:17:07;;;;;;;3.08;0.73;;;12.70;99.90;;;;;;5117076;27;20468;-87
2023/10/08 03:19:32;;;;;;;2.22;0.75;;;12.50;99.90;;;;;;5125656;27;20076;-88
2023/10/08 03:21:58;;;;;;;1.67;1.20;;;12.30;99.90;;;;;;5124847;27;20023;-89
2023/10/08 03:24:37;;;;;;;4.32;1.20;;;12.30;99.90;;;;;;5122514;27;20273;-89
2023/10/08 03:27:07;;;;;;;2.13;1.20;;;12.10;99.90;;;;;;5123825;27;20081;-91
2023/10/08 03:29:42;;;;;;;3.00;1.27;;;12.00;99.90;;;;;;5121353;27;20045;-89
2023/10/08 03:32:13;;;;;;;4.07;1.33;;;11.90;99.90;;;;;;5116350;27;20159;-92
2023/10/08 03:34:42;;;;;;;4.20;1.35;;;11.80;99.90;;;;;;5124803;27;20509;-91
2023/10/08 03:37:08;;;;;;;5.85;1.65;;;11.70;99.90;;;;;;5128014;27;20031;-90
2023/10/08 03:42:41;;;;;;;3.95;1.20;;;11.40;99.90;;;;;;5090289;28;20028;-95
2023/10/08 03:45:11;;;;;;;3.90;1.73;;;11.30;99.90;;;;;;5075524;28;20033;-89
2023/10/08 03:47:38;;;;;;;5.35;1.40;;;11.10;99.90;;;;;;5105887;27;20334;-93
2023/10/08 03:50:09;;;;;;;3.85;1.75;;;11.00;99.90;;;;;;5118760;27;20471;-91
2023/10/08 03:52:38;;;;;;;5.50;1.90;;;10.90;99.90;;;;;;5122185;27;20027;-94
2023/10/08 03:55:21;;;;;;;11.55;1.95;;;10.80;99.90;;;;;;5125620;27;20031;-91
2023/10/08 03:57:48;;;;;;;6.03;2.35;;;10.80;99.90;;;;;;5119080;27;20058;-89
2023/10/08 04:00:28;;;;;;;5.43;1.63;;;10.80;99.90;;;;;;5119792;27;20447;-91
2023/10/08 04:03:00;;;;;;;6.90;1.55;;;10.70;99.90;;;;;;5126191;27;20030;-96
2023/10/08 04:05:33;;;;;;;4.80;1.40;;;10.70;99.90;;;;;;5123403;27;20083;-92
2023/10/08 04:13:10;;;;;;;6.38;1.80;;;10.60;99.90;;;;;;5121801;27;20031;-90
2023/10/08 04:15:40;;;;;;;4.28;1.58;;;10.60;99.90;;;;;;5122126;27;20027;-91
2023/10/08 04:18:10;;;;;;;3.97;1.40;;;10.70;99.90;;;;;;5118293;27;20024;-92
2023/10/08 04:23:17;;;;;;;3.95;1.25;;;10.70;99.90;;;;;;5121328;27;20031;-92
2023/10/08 04:25:43;;;;;;;5.05;1.60;;;10.60;99.90;;;;;;5119971;27;20051;-93
2023/10/08 04:28:14;;;;;;;8.70;1.88;;;10.60;99.90;;;;;;5125560;27;20532;-90
2023/10/08 04:30:41;;;;;;;4.68;2.10;;;10.50;99.90;;;;;;5122416;27;20043;-90
2023/10/08 04:33:11;;;;;;;3.72;1.90;;;10.50;99.90;;;;;;5126918;27;20020;-94
2023/10/08 04:36:01;;;;;;;6.40;1.80;;;10.40;99.90;;;;;;5127556;27;20499;-90
2023/10/08 04:38:28;;;;;;;5.03;1.23;;;10.30;99.90;;;;;;5126096;27;20045;-91
2023/10/08 04:40:55;;;;;;;6.03;1.98;;;10.30;99.90;;;;;;5127448;27;20053;-91
2023/10/08 04:43:25;;;;;;;5.13;1.50;;;10.20;99.90;;;;;;5123713;27;20023;-91
2023/10/08 04:45:51;;;;;;;8.32;2.80;;;10.20;99.90;;;;;;5124858;27;20110;-91
2023/10/08 04:48:20;;;;;;;4.82;1.60;;;10.20;99.90;;;;;;5124012;27;20482;-93
2023/10/08 04:50:58;;;;;;;6.47;1.92;;;10.10;99.90;;;;;;5123630;27;20111;-92
2023/10/08 04:53:54;;;;;;;7.65;1.42;;;10.10;99.90;;;;;;5123719;27;20514;-91
2023/10/08 04:56:17;;;;;;;4.53;1.40;;;10.10;99.90;;;;;;5124067;27;20315;-92
2023/10/08 04:58:47;;;;;;;6.18;1.80;;;10.10;99.90;;;;;;5126032;27;20023;-90
2023/10/08 05:01:17;;;;;;;4.75;1.45;;;10.10;99.90;;;;;;5121360;27;20395;-93
2023/10/08 05:09:39;;;;;;;3.90;1.45;;;10.20;99.90;;;;;;5122882;27;20498;-92
2023/10/08 05:12:30;;;;;;;2.50;1.10;;;10.10;99.90;;;;;;5120378;27;20043;-91
2023/10/08 05:15:17;;;;;;;7.50;1.70;;;10.10;99.90;;;;;;5123154;27;20428;-90
2023/10/08 05:25:58;;;;;;;4.45;1.85;;;10.20;99.90;;;;;;5114885;27;20077;-91
2023/10/08 05:28:27;;;;;;;5.68;1.48;;;10.20;99.90;;;;;;5125705;27;20027;-90
2023/10/08 05:39:29;;;;;;;5.40;2.05;;;10.30;99.90;;;;;;5120245;27;20035;-92
2023/10/08 05:47:51;;;;;;;6.22;1.38;;;10.30;99.90;;;;;;5121546;27;20153;-91
2023/10/08 05:55:26;;;;;;;7.32;1.90;;;10.30;99.90;;;;;;5118675;27;20454;-91
2023/10/08 05:58:12;;;;;;;5.57;1.92;;;10.30;99.90;;;;;;5121248;27;20114;-93
2023/10/08 06:03:48;;;;;;;5.13;1.73;;;10.30;99.90;;;;;;5119595;27;20476;-95
2023/10/08 06:17:13;;;;;;;6.47;1.67;;;10.40;99.90;;;;;;5124729;27;20082;-91
2023/10/08 06:19:44;;;;;;;3.70;1.35;;;10.40;99.90;;;;;;5120755;27;20080;-91
2023/10/08 06:22:10;;;;;;;8.05;2.05;;;10.40;99.90;;;;;;5121562;27;20394;-91
2023/10/08 06:24:38;;;;;;;5.28;1.45;;;10.30;99.90;;;;;;5117316;27;20035;-91
2023/10/08 06:27:16;;;;;;;6.35;2.00;;;10.30;99.90;;;;;;5121670;27;20061;-92
2023/10/08 06:29:44;;;;;;;4.63;1.40;;;10.30;99.90;;;;;;5121872;27;20041;-90
2023/10/08 06:32:11;;;;;;;9.20;1.63;;;10.30;99.90;;;;;;5126582;27;20529;-89
2023/10/08 06:34:40;;;;;;;4.85;1.77;;;10.30;99.90;;;;;;5119545;27;20008;-89
2023/10/08 06:37:07;;;;;;;7.78;1.75;;;10.30;99.90;;;;;;5131211;27;20031;-89
2023/10/08 06:39:47;;;;;;;4.95;1.45;;;10.30;99.90;;;;;;5125249;27;20042;-90
2023/10/08 06:42:14;;;;;;;7.32;1.70;;;10.30;99.90;;;;;;5115842;27;20108;-90
2023/10/08 06:44:43;;;;;;;5.50;2.30;;;10.30;99.90;;;;;;5122839;27;20114;-90
2023/10/08 06:47:09;;;;;;;9.98;1.98;;;10.40;99.90;;;;;;5123065;27;20031;-89
2023/10/08 06:49:35;;;;;;;10.20;2.42;;;10.40;99.90;;;;;;5119032;27;20470;-89
2023/10/08 06:52:03;;;;;;;7.72;2.47;;;10.30;99.90;;;;;;5121299;27;20041;-89
2023/10/08 06:54:30;;;;;;;5.45;1.65;;;10.40;99.90;;;;;;5123777;27;20035;-90
2023/10/08 06:56:56;;;;;;;6.28;1.80;;;10.30;99.90;;;;;;5125708;27;20494;-90
2023/10/08 06:59:25;;;;;;;6.18;1.60;;;10.40;99.90;;;;;;5105968;28;20027;-89
2023/10/08 07:01:51;;;;;;;5.35;1.80;;;10.40;99.90;;;;;;5121164;27;20023;-90
2023/10/08 07:04:20;;;;;;;6.45;2.10;;;10.40;99.90;;;;;;5116976;27;20455;-89
2023/10/08 07:06:50;;;;;;;6.93;2.08;;;10.40;99.90;;;;;;5119066;27;20028;-90
2023/10/08 07:09:22;;;;;;;12.18;2.30;;;10.40;99.90;;;;;;5123161;27;20106;-89
2023/10/08 07:11:54;;;;;;;11.38;3.00;;;10.40;99.90;;;;;;5120442;27;20035;-88
2023/10/08 07:14:22;;;;;;;11.63;2.67;;;10.40;99.90;;;;;;5120121;27;20116;-89
2023/10/08 07:16:52;;;;;;;11.93;2.78;;;10.40;99.90;;;;;;5115893;27;20058;-89
2023/10/08 07:19:18;;;;;;;9.98;2.80;;;10.40;99.90;;;;;;5122615;27;20027;-89
2023/10/08 07:21:46;;;;;;;4.00;2.22;;;10.40;99.90;;;;;;5114899;27;20152;-90
2023/10/08 07:24:21;;;;;;;7.65;2.40;;;10.40;99.90;;;;;;5120639;27;20031;-88
2023/10/08 07:26:49;;;;;;;10.95;2.35;;;10.40;99.90;;;;;;5118073;27;20072;-88
2023/10/08 07:29:17;;;;;;;10.80;2.13;;;10.40;99.90;;;;;;5118710;27;20035;-89
2023/10/08 07:31:48;;;;;;;9.43;2.13;;;10.40;99.90;;;;;;5111893;27;20042;-89
2023/10/08 07:36:50;;;;;;;11.27;2.30;;;10.40;99.90;;;;;;5121390;27;20035;-88
2023/10/08 07:39:35;;;;;;;9.35;3.20;;;10.40;99.90;;;;;;5123008;27;20031;-89
2023/10/08 07:42:05;;;;;;;8.77;2.08;;;10.40;99.90;;;;;;5118694;27;20031;-88
2023/10/08 07:44:31;;;;;;;7.35;1.90;;;10.40;99.90;;;;;;5114333;27;20426;-88
2023/10/08 07:46:57;;;;;;;9.35;2.22;;;10.50;99.90;;;;;;5108990;27;20403;-88
2023/10/08 07:49:25;;;;;;;8.07;2.75;;;10.50;99.90;;;;;;5117339;27;20074;-88
2023/10/08 07:51:51;;;;;;;12.23;2.67;;;10.40;99.90;;;;;;5118003;27;20032;-88
2023/10/08 07:54:19;;;;;;;12.15;2.95;;;10.50;99.90;;;;;;5105095;27;20164;-88
2023/10/08 07:56:45;;;;;;;12.60;2.95;;;10.40;99.90;;;;;;5125640;27;20042;-88
2023/10/08 07:59:14;;;;;;;14.57;3.40;;;10.40;99.90;;;;;;5125257;27;20112;-89
2023/10/08 08:01:42;;;;;;;9.75;2.75;;;10.50;99.90;;;;;;5122826;27;20027;-88
2023/10/08 08:04:10;;;;;;;7.88;2.53;;;10.60;99.90;;;;;;5121191;27;20491;-89
2023/10/08 08:06:37;;;;;;;8.82;2.95;;;10.60;99.90;;;;;;5121407;27;20019;-88
2023/10/08 08:09:08;;;;;;;11.15;2.60;;;10.70;99.90;;;;;;5123039;27;20042;-88
2023/10/08 08:11:36;;;;;;;13.45;2.72;;;10.80;99.90;;;;;;5122241;27;20062;-88
2023/10/08 08:14:07;;;;;;;12.27;2.70;;;10.80;99.90;;;;;;5120015;27;20023;-90
2023/10/08 08:16:36;;;;;;;8.13;2.78;;;10.90;99.90;;;;;;5121079;27;20084;-88
2023/10/08 08:19:02;;;;;;;11.27;2.40;;;11.00;99.90;;;;;;5125027;27;20046;-88
2023/10/08 08:21:30;;;;;;;9.70;2.47;;;11.00;99.90;;;;;;5134519;27;20395;-89
2023/10/08 08:24:04;;;;;;;12.02;2.58;;;11.00;99.90;;;;;;5121297;27;20038;-90
2023/10/08 08:26:39;;;;;;;12.55;2.35;;;11.10;99.90;;;;;;5120593;27;21238;-87
2023/10/08 08:29:08;;;;;;;6.45;2.20;;;11.10;99.90;;;;;;5115332;27;20039;-88
2023/10/08 08:31:35;;;;;;;13.25;2.83;;;11.10;99.90;;;;;;5119003;27;20523;-88
2023/10/08 08:34:08;;;;;;;9.30;2.40;;;11.10;99.90;;;;;;5121730;27;20031;-87
2023/10/08 08:36:34;;;;;;;11.45;2.90;;;11.20;99.90;;;;;;5125946;27;20026;-88
2023/10/08 08:39:00;;;;;;;8.90;2.15;;;11.20;99.90;;;;;;5138233;27;20271;-88
2023/10/08 08:41:25;;;;;;;14.60;2.40;;;11.20;99.90;;;;;;5107336;27;20027;-88
2023/10/08 08:43:58;;;;;;;12.18;2.88;;;11.30;99.90;;;;;;5118787;27;20023;-88
2023/10/08 08:46:32;;;;;;;8.13;2.47;;;11.30;99.90;;;;;;5120496;27;20131;-88
2023/10/08 08:49:07;;;;;;;11.48;2.95;;;11.40;99.90;;;;;;5116638;27;20047;-88
2023/10/08 08:51:34;;;;;;;20.65;3.17;;;11.40;99.90;;;;;;5118550;27;20038;-88
2023/10/08 08:54:06;;;;;;;9.60;2.38;;;11.50;99.90;;;;;;5115811;27;20027;-87
2023/10/08 08:56:38;;;;;;;11.30;2.22;;;11.60;99.90;;;;;;5118716;27;20035;-88
2023/10/08 08:59:04;;;;;;;12.55;2.65;;;11.50;99.90;;;;;;5120707;27;20023;-87
2023/10/08 09:01:32;;;;;;;13.93;2.50;;;11.60;99.90;;;;;;5123633;27;20031;-87
2023/10/08 09:04:05;;;;;;;11.45;2.13;;;11.60;99.90;;;;;;5115315;27;20058;-88
2023/10/08 09:06:32;;;;;;;10.05;2.42;;;11.70;99.90;;;;;;5119618;27;20468;-87
2023/10/08 09:09:21;;;;;;;9.13;2.03;;;11.80;99.90;;;;;;5125465;27;20114;-88
2023/10/08 09:11:55;;;;;;;12.85;2.92;;;11.80;99.90;;;;;;5118489;27;20023;-88
2023/10/08 09:14:22;;;;;;;5.30;1.60;;;11.90;99.90;;;;;;5120093;27;20023;-87
2023/10/08 09:16:52;;;;;;;9.93;2.28;;;11.90;99.90;;;;;;5125276;27;20023;-86
2023/10/08 09:19:23;;;;;;;12.43;2.78;;;11.90;99.90;;;;;;5114868;27;20486;-87
2023/10/08 09:22:06;;;;;;;10.57;2.95;;;11.90;99.90;;;;;;5121152;27;20028;-86
2023/10/08 09:24:33;;;;;;;7.50;1.75;;;11.90;99.90;;;;;;5117905;27;20400;-87
2023/10/08 09:27:01;;;;;;;11.88;2.03;;;11.90;99.90;;;;;;5119558;27;20744;-88
2023/10/08 09:29:27;;;;;;;12.00;2.47;;;11.90;99.90;;;;;;5113439;27;20525;-85
2023/10/08 09:31:56;;;;;;;10.40;2.15;;;11.90;99.90;;;;;;5122505;27;20027;-87
2023/10/08 09:34:28;;;;;;;10.93;2.05;;;11.90;99.90;;;;;;5112648;27;20106;-87
2023/10/08 09:36:56;;;;;;;6.40;2.10;;;12.00;99.90;;;;;;5121785;27;20479;-86
2023/10/08 09:39:26;;;;;;;8.55;2.40;;;12.00;99.90;;;;;;5124319;27;20031;-88
2023/10/08 09:41:56;;;;;;;11.00;2.28;;;12.10;99.90;;;;;;5115718;27;20027;-86
2023/10/08 09:44:24;;;;;;;13.13;3.05;;;12.10;99.90;;;;;;5119123;27;20023;-90
2023/10/08 09:46:55;;;;;;;8.55;2.40;;;12.20;99.90;;;;;;5120050;27;20035;-89
2023/10/08 09:49:31;;;;;;;16.80;2.10;;;12.20;99.90;;;;;;5111375;27;20078;-86
2023/10/08 09:51:59;;;;;;;12.05;2.22;;;12.20;99.90;;;;;;5117313;27;20023;-86
2023/10/08 09:54:33;;;;;;;10.07;1.85;;;12.20;99.90;;;;;;5107857;27;20028;-85
2023/10/08 09:57:03;;;;;;;10.85;2.55;;;12.20;99.90;;;;;;5114349;27;20241;-86
2023/10/08 09:59:29;;;;;;;9.55;2.22;;;12.20;99.90;;;;;;5120423;27;20103;-85
2023/10/08 10:01:59;;;;;;;11.73;2.50;;;12.30;99.90;;;;;;5120914;27;20044;-86
2023/10/08 10:04:28;;;;;;;4.57;1.83;;;12.40;99.90;;;;;;5114683;27;20023;-86
2023/10/08 10:06:57;;;;;;;8.10;1.92;;;12.40;99.90;;;;;;5113484;27;20594;-87
2023/10/08 10:09:25;;;;;;;10.80;2.20;;;12.50;99.90;;;;;;5117188;27;20175;-86
2023/10/08 10:11:52;;;;;;;8.30;2.42;;;12.50;99.90;;;;;;5112383;27;20502;-86
2023/10/08 10:14:18;;;;;;;13.68;2.72;;;12.50;99.90;;;;;;5117932;27;20035;-86
2023/10/08 10:16:48;;;;;;;8.63;2.47;;;12.40;99.90;;;;;;5119694;27;20080;-86
2023/10/08 10:19:20;;;;;;;10.20;2.22;;;12.50;99.90;;;;;;5098054;27;20429;-87
2023/10/08 10:21:49;;;;;;;5.18;1.70;;;12.50;99.90;;;;;;5118004;27;20065;-84
2023/10/08 10:24:37;;;;;;;6.00;1.83;;;12.50;99.90;;;;;;5117509;27;20083;-85
2023/10/08 10:27:15;;;;;;;10.65;2.40;;;12.50;99.90;;;;;;5117906;27;20042;-85
2023/10/08 10:29:43;;;;;;;3.88;1.38;;;12.50;99.90;;;;;;5114385;27;20039;-85
2023/10/08 10:32:14;;;;;;;9.30;1.98;;;12.60;99.90;;;;;;5115606;27;20011;-85
2023/10/08 10:34:41;;;;;;;8.68;1.60;;;12.60;99.90;;;;;;5110992;27;20028;-87
2023/10/08 10:37:19;;;;;;;6.22;1.90;;;12.70;99.90;;;;;;5114171;27;20368;-88
2023/10/08 10:39:56;;;;;;;7.90;2.70;;;12.70;99.90;;;;;;5119609;27;20036;-85
2023/10/08 10:42:28;;;;;;;9.75;1.83;;;12.70;99.90;;;;;;5115210;27;20045;-86
2023/10/08 10:44:55;;;;;;;11.43;2.22;;;12.80;99.90;;;;;;5111575;27;20107;-85
2023/10/08 10:49:52;;;;;;;3.85;1.63;;;12.80;99.90;;;;;;5118383;27;20045;-85
2023/10/08 10:52:44;;;;;;;6.10;1.70;;;12.80;99.90;;;;;;5115076;27;20245;-87
2023/10/08 10:58:14;;;;;;;8.98;2.92;;;12.90;99.90;;;;;;5118703;27;20020;-86
2023/10/08 11:03:23;;;;;;;6.82;2.03;;;12.90;99.90;;;;;;5119007;27;20091;-86
2023/10/08 11:05:54;;;;;;;7.47;1.88;;;13.00;99.90;;;;;;5112684;27;20046;-86
2023/10/08 11:08:23;;;;;;;8.80;1.65;;;13.00;99.90;;;;;;5113350;27;20482;-85
2023/10/08 11:10:51;;;;;;;8.82;1.83;;;13.00;99.90;;;;;;5118677;27;20054;-86
2023/10/08 11:13:19;;;;;;;9.48;1.65;;;13.00;99.90;;;;;;5112454;27;20084;-86
2023/10/08 11:15:49;;;;;;;7.13;2.00;;;13.10;99.90;;;;;;5117388;27;20032;-86
2023/10/08 11:18:17;;;;;;;7.68;2.40;;;13.20;99.90;;;;;;5116132;28;20023;-87
2023/10/08 11:20:46;;;;;;;5.15;1.33;;;13.20;99.90;;;;;;5120722;27;20033;-84
2023/10/08 11:23:29;;;;;;;5.95;1.77;;;13.20;99.90;;;;;;5113813;27;20023;-84
2023/10/08 11:26:02;;;;;;;4.15;1.40;;;13.20;99.90;;;;;;5120298;27;20499;-84
2023/10/08 11:28:41;;;;;;;7.45;1.98;;;13.10;99.90;;;;;;5103029;27;20476;-85
2023/10/08 11:31:10;;;;;;;8.50;2.17;;;13.20;99.90;;;;;;5111762;27;20490;-83
2023/10/08 11:33:53;;;;;;;8.90;2.47;;;13.30;99.90;;;;;;5116820;27;20019;-83
2023/10/08 11:36:40;;;;;;;7.35;1.55;;;13.40;99.90;;;;;;5117801;27;20041;-84
2023/10/08 11:39:21;;;;;;;10.25;2.17;;;13.40;99.90;;;;;;5121153;27;20336;-84
2023/10/08 11:42:03;;;;;;;5.75;1.85;;;13.40;99.90;;;;;;5123463;27;20474;-83
2023/10/08 11:44:30;;;;;;;4.35;1.67;;;13.40;99.90;;;;;;5110469;27;20020;-84
2023/10/08 11:47:04;;;;;;;5.60;2.25;;;13.40;99.90;;;;;;5121267;27;20467;-83
2023/10/08 11:49:36;;;;;;;8.82;1.92;;;13.50;99.90;;;;;;5118124;27;20055;-83
2023/10/08 11:52:02;;;;;;;9.73;2.03;;;13.60;99.90;;;;;;5122032;27;20234;-86
2023/10/08 11:54:27;;;;;;;5.65;1.70;;;13.60;99.90;;;;;;5127330;27;20023;-86
2023/10/08 11:56:53;;;;;;;5.50;1.63;;;13.60;99.90;;;;;;5120346;27;20448;-87
2023/10/08 11:59:19;;;;;;;7.40;1.95;;;13.60;99.90;;;;;;5128180;27;20035;-86
2023/10/08 12:01:48;;;;;;;17.33;3.28;;;13.60;99.90;;;;;;5129094;27;20118;-84
2023/10/08 12:04:16;;;;;;;5.65;2.10;;;13.60;99.90;;;;;;5127664;27;20027;-85
2023/10/08 12:06:51;;;;;;;8.55;1.67;;;13.60;99.90;;;;;;5120809;27;20035;-86
2023/10/08 12:09:18;;;;;;;;;;;13.70;99.90;;;;;;5131932;27;20027;-85
2023/10/08 12:11:47;;;;;;;6.30;1.88;;;13.70;99.90;;;;;;5120906;27;19907;-83
2023/10/08 12:14:14;;;;;;;5.15;1.60;;;13.70;99.90;;;;;;5121237;27;20064;-85
2023/10/08 12:16:41;;;;;;;10.90;1.60;;;13.80;99.90;;;;;;5125295;27;20122;-86
2023/10/08 12:19:16;;;;;;;8.45;2.00;;;13.80;99.90;;;;;;5120277;27;20479;-87
2023/10/08 12:21:46;;;;;;;8.98;2.53;;;13.90;99.90;;;;;;5116594;27;20118;-85
2023/10/08 12:24:12;;;;;;;6.97;2.08;;;13.90;99.90;;;;;;5122455;27;20051;-84
2023/10/08 12:26:45;;;;;;;4.97;2.22;;;13.90;99.90;;;;;;5114076;27;20023;-84
2023/10/08 12:29:19;;;;;;;5.63;2.33;;;13.90;99.90;;;;;;5112599;27;20035;-84
2023/10/08 12:31:47;;;;;;;7.97;2.70;;;13.90;99.90;;;;;;5121553;27;20417;-86
2023/10/08 12:34:14;;;;;;;4.05;1.40;;;13.90;99.90;;;;;;5128102;27;20035;-85
2023/10/08 12:36:40;;;;;;;2.88;1.67;;;14.00;99.90;;;;;;5130929;27;20107;-85
2023/10/08 12:39:11;;;;;;;6.85;1.77;;;14.10;99.90;;;;;;5114537;27;20094;-85
2023/10/08 12:41:39;;;;;;;6.60;1.83;;;14.10;99.90;;;;;;5130231;27;20023;-84
2023/10/08 12:44:08;;;;;;;7.38;1.52;;;14.20;99.90;;;;;;5125389;27;20031;-85
2023/10/08 12:46:34;;;;;;;4.00;1.50;;;14.20;99.90;;;;;;5126869;27;20029;-85
2023/10/08 12:49:01;;;;;;;5.50;1.90;;;14.20;99.90;;;;;;5122398;27;20047;-84
2023/10/08 12:51:31;;;;;;;6.13;1.75;;;14.30;99.90;;;;;;5122774;27;20149;-85
2023/10/08 12:54:06;;;;;;;15.10;2.55;;;14.40;99.90;;;;;;5127638;27;20016;-85
2023/10/08 12:56:32;;;;;;;6.30;1.85;;;14.40;99.90;;;;;;5127700;27;20027;-85
2023/10/08 12:58:58;;;;;;;7.05;1.75;;;14.40;99.90;;;;;;5123140;27;20429;-84
2023/10/08 13:01:28;;;;;;;6.85;2.08;;;14.50;99.90;;;;;;5128108;27;20034;-85
2023/10/08 13:03:59;;;;;;;5.88;1.85;;;14.50;99.90;;;;;;5127626;27;20027;-85
2023/10/08 13:06:28;;;;;;;7.15;2.00;;;14.50;99.90;;;;;;5118985;27;20088;-85
2023/10/08 13:08:58;;;;;;;6.20;2.08;;;14.60;99.90;;;;;;5127514;27;20031;-84
2023/10/08 13:11:26;;;;;;;18.63;2.63;;;14.60;99.90;;;;;;5115667;27;20104;-84
2023/10/08 13:13:53;;;;;;;6.32;1.95;;;14.60;99.90;;;;;;5125439;27;20186;-84
2023/10/08 13:16:22;;;;;;;7.20;1.75;;;14.60;99.90;;;;;;5114347;27;20539;-86
2023/10/08 13:18:48;;;;;;;7.78;1.73;;;14.50;99.90;;;;;;5121787;27;20036;-84
2023/10/08 13:21:15;;;;;;;7.47;2.70;;;14.60;99.90;;;;;;5115027;27;20055;-82
2023/10/08 13:23:41;;;;;;;6.97;2.05;;;14.60;99.90;;;;;;5131258;27;20028;-84
2023/10/08 13:26:07;;;;;;;14.68;2.30;;;14.60;99.90;;;;;;5103657;27;20030;-84
2023/10/08 13:28:36;;;;;;;4.07;1.70;;;14.60;99.90;;;;;;5122435;27;20025;-84
2023/10/08 13:31:11;;;;;;;5.25;2.13;;;14.60;99.90;;;;;;5122135;27;20515;-84
2023/10/08 13:33:42;;;;;;;7.28;1.70;;;14.60;99.90;;;;;;5105188;27;20027;-84
2023/10/08 13:36:09;;;;;;;5.10;2.00;;;14.50;99.90;;;;;;5125659;27;20034;-84
2023/10/08 13:38:38;;;;;;;15.65;2.30;;;14.50;99.90;;;;;;5127818;27;20608;-83
2023/10/08 13:41:14;;;;;;;4.30;1.73;;;14.50;99.90;;;;;;5127867;27;20411;-84
2023/10/08 13:43:45;;;;;;;3.97;1.58;;;14.40;99.90;;;;;;5126129;27;20486;-84
2023/10/08 13:46:14;;;;;;;6.57;1.83;;;14.40;99.90;;;;;;5126384;27;20031;-84
2023/10/08 13:48:41;;;;;;;8.25;2.08;;;14.40;99.90;;;;;;5125950;27;20023;-84
2023/10/08 13:51:14;;;;;;;5.25;1.40;;;14.40;99.90;;;;;;5117026;27;20039;-85
2023/10/08 13:53:44;;;;;;;15.93;2.25;;;14.40;99.90;;;;;;5104739;27;20433;-84
2023/10/08 13:56:11;;;;;;;6.15;1.60;;;14.50;99.90;;;;;;5121587;27;20023;-84
2023/10/08 13:58:41;;;;;;;10.02;2.40;;;14.60;99.90;;;;;;5126057;27;20395;-85
2023/10/08 14:01:19;;;;;;;5.03;1.95;;;14.70;99.90;;;;;;5121838;27;20526;-84
2023/10/08 14:03:48;;;;;;;4.50;1.73;;;14.80;99.90;;;;;;5124296;27;20043;-84
2023/10/08 14:06:17;;;;;;;10.57;2.10;;;15.00;99.90;;;;;;5115315;27;20024;-84
2023/10/08 14:08:54;;;;;;;9.00;1.90;;;15.10;99.90;;;;;;5132567;27;20051;-84
2023/10/08 14:11:23;;;;;;;7.50;2.33;;;15.20;99.90;;;;;;5117615;27;20498;-83
2023/10/08 14:13:52;;;;;;;7.72;1.90;;;15.20;99.90;;;;;;5130785;27;20076;-84
2023/10/08 14:16:28;;;;;;;10.18;2.03;;;15.20;99.90;;;;;;5124326;27;20054;-84
2023/10/08 14:18:55;;;;;;;5.28;1.95;;;15.10;99.90;;;;;;5116988;27;20026;-84